createdAt,value
2024-02-24T09:01:44.778Z,50.00
2024-02-24T09:02:22.318Z,50.00
2024-02-24T09:03:24.210Z,50.00
2024-02-24T09:04:22.224Z,50.00
2024-02-24T09:05:22.285Z,50.00
2024-02-24T09:06:22.323Z,50.00
2024-02-24T09:07:22.359Z,31.88
2024-02-24T09:08:22.256Z,10.41
2024-02-24T09:09:22.249Z,0.00
2024-02-24T09:10:22.261Z,0.00
2024-02-24T09:11:22.315Z,0.00
2024-02-24T09:12:22.337Z,0.00
2024-02-24T09:13:22.279Z,0.00
2024-02-24T09:14:22.274Z,0.00
2024-02-24T09:15:22.253Z,0.00
2024-02-24T09:16:22.277Z,2.26
2024-02-24T09:17:22.293Z,10.88
2024-02-24T09:18:22.351Z,19.65
2024-02-24T09:19:22.278Z,31.12
2024-02-24T09:20:22.319Z,42.61
2024-02-24T09:21:22.266Z,50.00
2024-02-24T09:22:22.323Z,50.00
2024-02-24T09:23:22.323Z,50.00
2024-02-24T09:24:22.321Z,50.00
2024-02-24T09:25:22.274Z,50.07
2024-02-24T09:26:22.308Z,50.00
2024-02-24T09:27:22.303Z,50.00
2024-02-24T09:28:22.299Z,50.00
2024-02-24T09:29:22.293Z,50.54
2024-02-24T09:30:22.281Z,50.30
2024-02-24T09:31:22.303Z,50.00
2024-02-24T09:32:22.318Z,51.79
2024-02-24T09:33:22.528Z,50.00
2024-02-24T09:34:22.433Z,51.04
2024-02-24T09:35:22.333Z,50.00
2024-02-24T09:36:22.336Z,50.09
2024-02-24T09:37:22.307Z,50.83
2024-02-24T09:38:22.298Z,51.27
2024-02-24T09:39:22.318Z,50.89
2024-02-24T09:40:22.322Z,51.54
2024-02-24T09:41:22.351Z,49.46
2024-02-24T09:42:22.301Z,50.00
2024-02-24T09:43:29.657Z,50.00
2024-02-24T09:44:29.697Z,50.00
2024-02-24T09:45:29.646Z,50.00
2024-02-24T09:46:29.695Z,50.00
2024-02-24T09:47:29.786Z,50.00
2024-02-24T09:48:29.747Z,50.09
2024-02-24T09:49:29.729Z,50.03
2024-02-24T09:50:29.692Z,50.68
2024-02-24T09:51:29.674Z,50.46
2024-02-24T09:52:29.836Z,52.60
2024-02-24T09:53:29.718Z,51.98
2024-02-24T09:54:29.682Z,52.15
2024-02-24T09:55:29.734Z,51.70
2024-02-24T09:56:29.678Z,50.00
2024-02-24T09:57:29.717Z,51.26
2024-02-24T09:58:29.669Z,50.11
2024-02-24T09:59:29.735Z,51.82
2024-02-24T10:00:29.705Z,50.21
2024-02-24T10:01:29.721Z,51.99
2024-02-24T10:02:29.746Z,52.78
2024-02-24T10:03:29.784Z,52.57
2024-02-24T10:04:29.704Z,51.32
2024-02-24T10:05:29.812Z,51.69
2024-02-24T10:06:29.738Z,49.98
2024-02-24T10:07:29.728Z,52.06
2024-02-24T10:08:29.745Z,49.79
2024-02-24T10:09:29.711Z,52.87
2024-02-24T10:10:29.824Z,54.47
2024-02-24T10:11:29.804Z,54.46
2024-02-24T10:12:29.726Z,50.23
2024-02-24T10:13:29.718Z,52.52
2024-02-24T10:14:29.752Z,51.31
2024-02-24T10:15:29.699Z,51.68
2024-02-24T10:16:29.708Z,50.21
2024-02-24T10:17:29.797Z,51.73
2024-02-24T10:24:47.308Z,50.74
2024-02-24T10:25:29.967Z,52.20
2024-02-24T10:26:29.981Z,57.76
2024-02-24T10:27:29.965Z,64.57
2024-02-24T10:28:29.978Z,72.51
2024-02-24T10:29:30.039Z,79.82
2024-02-24T10:30:30.034Z,78.20
2024-02-24T10:31:30.004Z,74.09
2024-02-24T10:32:30.085Z,68.49
2024-02-24T10:33:30.979Z,68.32
2024-02-24T10:34:30.215Z,64.41
2024-02-24T10:35:30.277Z,63.12
2024-02-24T10:36:30.091Z,59.56
2024-02-24T10:37:44.003Z,59.68
2024-02-24T10:38:37.023Z,59.75
2024-02-24T10:39:31.139Z,59.69
2024-02-24T10:40:30.111Z,57.67
2024-02-24T10:41:31.402Z,56.09
2024-02-24T10:42:30.124Z,54.97
2024-02-24T10:43:30.179Z,55.33
2024-02-24T10:44:30.229Z,53.92
2024-02-24T10:45:30.120Z,50.97
2024-02-24T10:46:30.119Z,52.30
2024-02-24T10:47:30.146Z,50.76
2024-02-24T10:48:30.395Z,52.13
2024-02-24T10:49:30.279Z,51.77
2024-02-24T10:50:30.168Z,51.30
2024-02-24T10:51:30.180Z,50.81
2024-02-24T10:52:30.104Z,51.17
2024-02-24T10:53:30.151Z,52.62
2024-02-24T10:54:30.151Z,50.81
2024-02-24T10:55:30.164Z,51.78
2024-02-24T10:56:30.175Z,50.93
2024-02-24T10:57:30.138Z,50.54
2024-02-24T10:58:30.141Z,51.51
2024-02-24T10:59:30.224Z,51.95
2024-02-24T11:00:30.169Z,53.62
2024-02-24T11:01:30.206Z,53.73
2024-02-24T11:02:30.194Z,50.33
2024-02-24T11:03:30.198Z,53.14
2024-02-24T11:04:30.360Z,50.00
2024-02-24T11:05:30.193Z,53.96
2024-02-24T11:06:31.862Z,53.15
2024-02-24T11:07:30.208Z,53.19
2024-02-24T11:08:30.222Z,53.29
2024-02-24T11:09:30.192Z,53.20
2024-02-24T11:10:30.156Z,52.84
2024-02-24T11:11:30.258Z,52.23
2024-02-24T11:12:31.511Z,51.37
2024-02-24T11:13:30.163Z,55.27
2024-02-24T11:14:30.184Z,54.24
2024-02-24T11:15:30.185Z,52.56
2024-02-24T11:16:30.229Z,52.41
2024-02-24T11:17:30.352Z,54.00
2024-02-24T11:18:33.202Z,50.69
2024-02-24T11:19:30.376Z,55.60
2024-02-24T11:20:30.462Z,54.76
2024-02-24T11:21:30.369Z,55.13
2024-02-24T11:22:30.362Z,53.81
2024-02-24T11:23:30.418Z,53.92
2024-02-24T11:24:30.401Z,52.24
2024-02-24T11:25:30.371Z,54.29
2024-02-24T11:26:30.435Z,55.33
2024-02-24T11:27:30.370Z,54.60
2024-02-24T11:28:30.409Z,56.09
2024-02-24T11:29:30.430Z,53.26
2024-02-24T11:30:30.385Z,53.17
2024-02-24T11:31:30.443Z,51.45
2024-02-24T11:32:30.490Z,53.36
2024-02-24T11:33:30.726Z,54.78
2024-02-24T11:34:30.459Z,54.67
2024-02-24T11:35:30.424Z,54.46
2024-02-24T11:36:30.389Z,54.08
2024-02-24T11:37:30.405Z,53.87
2024-02-24T11:38:30.414Z,55.68
2024-02-24T11:39:30.411Z,53.04
2024-02-24T11:40:30.411Z,53.84
2024-02-24T11:41:30.428Z,51.98
2024-02-24T11:42:30.426Z,52.60
2024-02-24T11:43:30.401Z,53.54
2024-02-24T11:44:30.435Z,53.92
2024-02-24T11:45:30.422Z,55.20
2024-02-24T11:46:30.443Z,53.24
2024-02-24T11:47:30.653Z,54.04
2024-02-24T11:48:30.672Z,51.48
2024-02-24T11:49:30.504Z,53.46
2024-02-24T11:50:30.414Z,54.93
2024-02-24T11:51:30.443Z,53.64
2024-02-24T11:52:30.447Z,54.57
2024-02-24T11:53:30.428Z,54.11
2024-02-24T11:54:30.460Z,52.76
2024-02-24T11:55:30.491Z,54.40
2024-02-24T11:56:30.535Z,53.92
2024-02-24T11:57:30.571Z,55.08
2024-02-24T11:58:30.647Z,53.71
2024-02-24T11:59:30.701Z,53.76
2024-02-24T12:00:30.693Z,52.56
2024-02-24T12:01:30.814Z,55.40
2024-02-24T12:02:30.789Z,54.25
2024-02-24T12:03:30.779Z,54.95
2024-02-24T12:04:30.959Z,52.90
2024-02-24T12:05:30.947Z,52.52
2024-02-24T12:06:30.918Z,54.36
2024-02-24T12:07:30.979Z,53.19
2024-02-24T12:08:31.016Z,54.46
2024-02-24T12:09:31.094Z,55.14
2024-02-24T12:10:31.135Z,53.29
2024-02-24T12:11:31.169Z,54.60
2024-02-24T12:12:31.154Z,53.49
2024-02-24T12:13:31.187Z,54.01
2024-02-24T12:14:31.262Z,53.47
2024-02-24T12:15:31.300Z,53.17
2024-02-24T12:16:31.318Z,52.24
2024-02-24T12:17:31.443Z,52.48
2024-02-24T12:18:31.608Z,53.61
2024-02-24T12:19:31.496Z,54.51
2024-02-24T12:20:31.489Z,54.68
2024-02-24T12:21:31.470Z,53.18
2024-02-24T12:22:31.499Z,55.16
2024-02-24T12:23:31.565Z,55.66
2024-02-24T12:24:31.534Z,55.50
2024-02-24T12:25:31.582Z,53.74
2024-02-24T12:26:31.633Z,54.44
2024-02-24T12:27:31.638Z,54.24
2024-02-24T12:28:31.647Z,54.66
2024-02-24T12:29:31.735Z,52.95
2024-02-24T12:30:31.692Z,53.36
2024-02-24T12:31:31.695Z,53.93
2024-02-24T12:32:31.790Z,54.55
2024-02-24T12:33:31.892Z,53.65
2024-02-24T12:34:31.817Z,54.82
2024-02-24T12:35:31.842Z,54.26
2024-02-24T12:36:31.841Z,53.88
2024-02-24T12:37:31.853Z,52.74
2024-02-24T12:38:31.941Z,52.48
2024-02-24T12:39:31.915Z,52.22
2024-02-24T12:40:31.888Z,53.05
2024-02-24T12:41:32.009Z,54.12
2024-02-24T12:42:31.959Z,52.78
2024-02-24T12:43:31.990Z,52.45
2024-02-24T12:44:32.087Z,53.32
2024-02-24T12:45:32.015Z,54.65
2024-02-24T12:46:32.049Z,53.21
2024-02-24T12:47:36.475Z,53.25
2024-02-24T12:48:32.218Z,53.14
2024-02-24T12:49:32.075Z,53.64
2024-02-24T12:50:32.074Z,52.74
2024-02-24T12:51:32.065Z,54.90
2024-02-24T12:52:32.073Z,54.10
2024-02-24T12:53:32.105Z,52.01
2024-02-24T12:54:32.086Z,52.75
2024-02-24T12:55:32.072Z,54.09
2024-02-24T12:56:32.102Z,53.24
2024-02-24T12:57:32.081Z,53.49
2024-02-24T12:58:32.064Z,53.68
2024-02-24T12:59:32.157Z,54.03
2024-02-24T13:00:32.164Z,54.18
2024-02-24T13:01:32.080Z,52.77
2024-02-24T13:02:32.129Z,54.03
2024-02-24T13:03:32.100Z,53.44
2024-02-24T13:04:32.074Z,53.83
2024-02-24T13:05:32.303Z,53.91
2024-02-24T13:06:32.267Z,51.73
2024-02-24T13:07:32.150Z,54.18
2024-02-24T13:08:32.367Z,54.31
2024-02-24T13:09:32.315Z,53.09
2024-02-24T13:10:32.444Z,53.04
2024-02-24T13:11:32.514Z,55.22
2024-02-24T13:12:32.544Z,55.31
2024-02-24T13:13:32.567Z,54.84
2024-02-24T13:14:32.662Z,55.93
2024-02-24T13:15:32.721Z,53.83
2024-02-24T13:16:32.744Z,51.68
2024-02-24T13:17:32.909Z,50.00
2024-02-24T13:18:33.135Z,55.23
2024-02-24T13:19:32.976Z,53.96
2024-02-24T13:20:33.042Z,55.71
2024-02-24T13:21:33.052Z,55.00
2024-02-24T13:22:33.109Z,54.29
2024-02-24T13:23:33.212Z,57.37
2024-02-24T13:24:33.221Z,55.38
2024-02-24T13:25:33.298Z,55.21
2024-02-24T13:26:33.359Z,56.36
2024-02-24T13:27:33.406Z,54.49
2024-02-24T13:28:33.430Z,55.25
2024-02-24T13:29:33.549Z,54.57
2024-02-24T13:30:33.524Z,52.97
2024-02-24T13:31:33.592Z,54.76
2024-02-24T13:32:33.828Z,54.23
2024-02-24T13:33:34.128Z,55.61
2024-02-24T13:34:33.818Z,53.98
2024-02-24T13:35:34.017Z,55.64
2024-02-24T13:36:33.885Z,54.75
2024-02-24T13:37:33.941Z,54.65
2024-02-24T13:38:33.995Z,56.97
2024-02-24T13:39:34.037Z,57.33
2024-02-24T13:40:34.112Z,57.47
2024-02-24T13:41:34.319Z,58.20
2024-02-24T13:42:34.210Z,57.61
2024-02-24T13:43:34.296Z,57.35
2024-02-24T13:44:34.411Z,58.46
2024-02-24T13:45:34.373Z,59.14
2024-02-24T13:46:34.408Z,56.80
2024-02-24T13:47:34.658Z,59.26
2024-02-24T13:48:34.728Z,55.50
2024-02-24T13:49:34.655Z,60.71
2024-02-24T13:50:34.644Z,58.93
2024-02-24T13:51:34.668Z,62.79
2024-02-24T13:52:34.719Z,56.40
2024-02-24T13:53:34.804Z,58.26
2024-02-24T13:54:34.805Z,64.64
2024-02-24T13:55:34.869Z,57.00
2024-02-24T13:56:34.926Z,63.22
2024-02-24T13:57:34.970Z,63.94
2024-02-24T13:58:35.022Z,65.61
2024-02-24T13:59:35.074Z,66.62
2024-02-24T14:00:35.214Z,65.99
